sensor_id;sensor_type;location;lat;lon;timestamp;P1;durP1;ratioP1;P2;durP2;ratioP2
68577;SDS011;61668;45.388;11.784;2022-08-21T00:02:16;11.00;;;4.30;;
68577;SDS011;61668;45.388;11.784;2022-08-21T00:04:43;10.10;;;4.70;;
68577;SDS011;61668;45.388;11.784;2022-08-21T00:07:09;10.60;;;3.80;;
68577;SDS011;61668;45.388;11.784;2022-08-21T00:09:35;10.30;;;4.40;;
68577;SDS011;61668;45.388;11.784;2022-08-21T00:12:01;9.10;;;3.90;;
68577;SDS011;61668;45.388;11.784;2022-08-21T00:14:26;10.90;;;4.30;;
68577;SDS011;61668;45.388;11.784;2022-08-21T00:16:52;10.50;;;3.80;;
68577;SDS011;61668;45.388;11.784;2022-08-21T00:19:17;10.30;;;4.30;;
68577;SDS011;61668;45.388;11.784;2022-08-21T00:21:43;9.70;;;3.60;;
68577;SDS011;61668;45.388;11.784;2022-08-21T00:24:09;10.30;;;4.10;;
68577;SDS011;61668;45.388;11.784;2022-08-21T00:26:35;9.70;;;3.80;;
68577;SDS011;61668;45.388;11.784;2022-08-21T00:29:00;9.40;;;4.10;;
68577;SDS011;61668;45.388;11.784;2022-08-21T00:31:26;8.90;;;3.50;;
68577;SDS011;61668;45.388;11.784;2022-08-21T00:33:51;9.60;;;3.10;;
68577;SDS011;61668;45.388;11.784;2022-08-21T00:36:17;10.10;;;2.80;;
68577;SDS011;61668;45.388;11.784;2022-08-21T00:38:43;9.00;;;3.00;;
68577;SDS011;61668;45.388;11.784;2022-08-21T00:41:10;8.60;;;2.90;;
68577;SDS011;61668;45.388;11.784;2022-08-21T00:43:38;8.20;;;3.10;;
68577;SDS011;61668;45.388;11.784;2022-08-21T00:46:05;8.00;;;2.20;;
68577;SDS011;61668;45.388;11.784;2022-08-21T00:48:32;7.50;;;2.30;;
68577;SDS011;61668;45.388;11.784;2022-08-21T00:51:05;8.40;;;2.40;;
68577;SDS011;61668;45.388;11.784;2022-08-21T00:53:37;9.20;;;2.60;;
68577;SDS011;61668;45.388;11.784;2022-08-21T00:56:07;7.70;;;2.20;;
68577;SDS011;61668;45.388;11.784;2022-08-21T00:58:36;6.90;;;2.10;;
68577;SDS011;61668;45.388;11.784;2022-08-21T01:01:04;8.00;;;2.30;;
68577;SDS011;61668;45.388;11.784;2022-08-21T01:03:32;9.40;;;2.40;;
68577;SDS011;61668;45.388;11.784;2022-08-21T01:05:58;6.60;;;1.80;;
68577;SDS011;61668;45.388;11.784;2022-08-21T01:08:24;6.60;;;1.50;;
68577;SDS011;61668;45.388;11.784;2022-08-21T01:10:52;7.30;;;1.40;;
68577;SDS011;61668;45.388;11.784;2022-08-21T01:13:19;6.60;;;1.70;;
68577;SDS011;61668;45.388;11.784;2022-08-21T01:15:48;6.50;;;1.10;;
68577;SDS011;61668;45.388;11.784;2022-08-21T01:18:16;6.70;;;1.20;;
68577;SDS011;61668;45.388;11.784;2022-08-21T01:20:57;6.70;;;1.10;;
68577;SDS011;61668;45.388;11.784;2022-08-21T01:23:22;7.30;;;1.70;;
68577;SDS011;61668;45.388;11.784;2022-08-21T01:25:48;7.20;;;1.60;;
68577;SDS011;61668;45.388;11.784;2022-08-21T01:28:14;6.80;;;1.80;;
68577;SDS011;61668;45.388;11.784;2022-08-21T01:30:42;10.30;;;1.40;;
68577;SDS011;61668;45.388;11.784;2022-08-21T01:33:09;6.60;;;1.20;;
68577;SDS011;61668;45.388;11.784;2022-08-21T01:35:35;7.90;;;1.20;;
68577;SDS011;61668;45.388;11.784;2022-08-21T01:38:00;7.70;;;2.00;;
68577;SDS011;61668;45.388;11.784;2022-08-21T01:40:26;7.90;;;1.80;;
68577;SDS011;61668;45.388;11.784;2022-08-21T01:42:51;7.50;;;1.60;;
68577;SDS011;61668;45.388;11.784;2022-08-21T01:45:18;6.50;;;1.40;;
68577;SDS011;61668;45.388;11.784;2022-08-21T01:47:44;6.80;;;1.60;;
68577;SDS011;61668;45.388;11.784;2022-08-21T01:50:13;7.30;;;1.60;;
68577;SDS011;61668;45.388;11.784;2022-08-21T01:52:40;7.20;;;1.70;;
68577;SDS011;61668;45.388;11.784;2022-08-21T01:55:08;5.80;;;1.10;;
68577;SDS011;61668;45.388;11.784;2022-08-21T01:57:34;6.20;;;0.90;;
68577;SDS011;61668;45.388;11.784;2022-08-21T02:00:00;5.30;;;0.90;;
68577;SDS011;61668;45.388;11.784;2022-08-21T02:02:26;6.10;;;1.10;;
68577;SDS011;61668;45.388;11.784;2022-08-21T02:04:51;5.50;;;1.00;;
68577;SDS011;61668;45.388;11.784;2022-08-21T02:07:17;7.60;;;1.40;;
68577;SDS011;61668;45.388;11.784;2022-08-21T02:09:43;6.70;;;1.20;;
68577;SDS011;61668;45.388;11.784;2022-08-21T02:12:10;6.10;;;0.90;;
68577;SDS011;61668;45.388;11.784;2022-08-21T02:14:36;6.50;;;1.10;;
68577;SDS011;61668;45.388;11.784;2022-08-21T02:17:02;5.60;;;0.70;;
68577;SDS011;61668;45.388;11.784;2022-08-21T02:19:28;5.90;;;0.70;;
68577;SDS011;61668;45.388;11.784;2022-08-21T02:21:54;5.60;;;0.60;;
68577;SDS011;61668;45.388;11.784;2022-08-21T02:24:20;6.00;;;0.80;;
68577;SDS011;61668;45.388;11.784;2022-08-21T02:26:45;5.60;;;0.80;;
68577;SDS011;61668;45.388;11.784;2022-08-21T02:29:11;7.60;;;1.20;;
68577;SDS011;61668;45.388;11.784;2022-08-21T02:31:36;9.40;;;1.00;;
68577;SDS011;61668;45.388;11.784;2022-08-21T02:34:02;6.60;;;0.70;;
68577;SDS011;61668;45.388;11.784;2022-08-21T02:36:28;5.60;;;0.60;;
68577;SDS011;61668;45.388;11.784;2022-08-21T02:38:53;5.70;;;1.00;;
68577;SDS011;61668;45.388;11.784;2022-08-21T02:41:20;6.10;;;0.90;;
68577;SDS011;61668;45.388;11.784;2022-08-21T02:43:47;5.10;;;0.90;;
68577;SDS011;61668;45.388;11.784;2022-08-21T02:46:16;5.50;;;0.90;;
68577;SDS011;61668;45.388;11.784;2022-08-21T02:48:43;5.80;;;0.70;;
68577;SDS011;61668;45.388;11.784;2022-08-21T02:51:13;7.20;;;0.60;;
68577;SDS011;61668;45.388;11.784;2022-08-21T02:53:42;5.40;;;0.90;;
68577;SDS011;61668;45.388;11.784;2022-08-21T02:56:12;5.50;;;0.60;;
68577;SDS011;61668;45.388;11.784;2022-08-21T02:58:44;5.70;;;0.50;;
68577;SDS011;61668;45.388;11.784;2022-08-21T03:01:13;5.80;;;0.70;;
68577;SDS011;61668;45.388;11.784;2022-08-21T03:03:41;4.60;;;0.50;;
68577;SDS011;61668;45.388;11.784;2022-08-21T03:06:10;5.70;;;0.70;;
68577;SDS011;61668;45.388;11.784;2022-08-21T03:08:38;6.70;;;0.70;;
68577;SDS011;61668;45.388;11.784;2022-08-21T03:11:04;5.70;;;1.00;;
68577;SDS011;61668;45.388;11.784;2022-08-21T03:13:31;5.90;;;0.80;;
68577;SDS011;61668;45.388;11.784;2022-08-21T03:15:57;7.00;;;0.90;;
68577;SDS011;61668;45.388;11.784;2022-08-21T03:18:23;5.10;;;0.50;;
68577;SDS011;61668;45.388;11.784;2022-08-21T03:20:49;5.60;;;0.80;;
68577;SDS011;61668;45.388;11.784;2022-08-21T03:23:16;5.70;;;0.90;;
68577;SDS011;61668;45.388;11.784;2022-08-21T03:25:42;6.10;;;1.00;;
68577;SDS011;61668;45.388;11.784;2022-08-21T03:28:13;5.30;;;0.80;;
68577;SDS011;61668;45.388;11.784;2022-08-21T03:30:47;6.20;;;0.90;;
68577;SDS011;61668;45.388;11.784;2022-08-21T03:33:13;5.00;;;0.50;;
68577;SDS011;61668;45.388;11.784;2022-08-21T03:35:42;6.00;;;0.70;;
68577;SDS011;61668;45.388;11.784;2022-08-21T03:38:08;4.90;;;0.70;;
68577;SDS011;61668;45.388;11.784;2022-08-21T03:40:34;5.20;;;0.70;;
68577;SDS011;61668;45.388;11.784;2022-08-21T03:42:59;5.70;;;0.60;;
68577;SDS011;61668;45.388;11.784;2022-08-21T03:45:25;4.90;;;0.60;;
68577;SDS011;61668;45.388;11.784;2022-08-21T03:50:18;5.70;;;0.70;;
68577;SDS011;61668;45.388;11.784;2022-08-21T03:52:43;5.30;;;0.40;;
68577;SDS011;61668;45.388;11.784;2022-08-21T03:55:09;6.30;;;0.60;;
68577;SDS011;61668;45.388;11.784;2022-08-21T03:57:35;5.70;;;0.60;;
68577;SDS011;61668;45.388;11.784;2022-08-21T04:00:00;4.50;;;0.40;;
68577;SDS011;61668;45.388;11.784;2022-08-21T04:02:26;5.80;;;0.80;;
68577;SDS011;61668;45.388;11.784;2022-08-21T04:04:52;5.60;;;0.80;;
68577;SDS011;61668;45.388;11.784;2022-08-21T04:07:17;5.50;;;0.70;;
68577;SDS011;61668;45.388;11.784;2022-08-21T04:09:43;5.30;;;0.60;;
68577;SDS011;61668;45.388;11.784;2022-08-21T04:12:09;6.40;;;0.50;;
68577;SDS011;61668;45.388;11.784;2022-08-21T04:14:34;6.20;;;0.80;;
68577;SDS011;61668;45.388;11.784;2022-08-21T04:17:00;5.10;;;0.60;;
68577;SDS011;61668;45.388;11.784;2022-08-21T04:19:25;8.00;;;0.70;;
68577;SDS011;61668;45.388;11.784;2022-08-21T04:21:51;5.80;;;0.80;;
68577;SDS011;61668;45.388;11.784;2022-08-21T04:24:17;5.50;;;0.90;;
68577;SDS011;61668;45.388;11.784;2022-08-21T04:26:42;7.00;;;0.60;;
68577;SDS011;61668;45.388;11.784;2022-08-21T04:29:08;5.60;;;0.70;;
68577;SDS011;61668;45.388;11.784;2022-08-21T04:31:34;5.00;;;0.50;;
68577;SDS011;61668;45.388;11.784;2022-08-21T04:34:03;5.90;;;1.30;;
68577;SDS011;61668;45.388;11.784;2022-08-21T04:36:30;5.40;;;0.40;;
68577;SDS011;61668;45.388;11.784;2022-08-21T04:38:56;5.80;;;0.70;;
68577;SDS011;61668;45.388;11.784;2022-08-21T04:41:22;5.90;;;0.60;;
68577;SDS011;61668;45.388;11.784;2022-08-21T04:43:47;5.20;;;0.60;;
68577;SDS011;61668;45.388;11.784;2022-08-21T04:46:13;6.10;;;0.90;;
68577;SDS011;61668;45.388;11.784;2022-08-21T04:48:38;9.00;;;2.40;;
68577;SDS011;61668;45.388;11.784;2022-08-21T04:51:09;10.30;;;2.20;;
68577;SDS011;61668;45.388;11.784;2022-08-21T04:53:44;8.20;;;2.00;;
68577;SDS011;61668;45.388;11.784;2022-08-21T04:56:17;9.80;;;2.50;;
68577;SDS011;61668;45.388;11.784;2022-08-21T04:58:47;7.90;;;1.40;;
68577;SDS011;61668;45.388;11.784;2022-08-21T05:01:17;6.50;;;0.90;;
68577;SDS011;61668;45.388;11.784;2022-08-21T05:03:47;5.10;;;0.50;;
68577;SDS011;61668;45.388;11.784;2022-08-21T05:06:14;5.60;;;0.60;;
68577;SDS011;61668;45.388;11.784;2022-08-21T05:08:42;6.00;;;0.60;;
68577;SDS011;61668;45.388;11.784;2022-08-21T05:11:10;5.50;;;0.70;;
68577;SDS011;61668;45.388;11.784;2022-08-21T05:13:36;6.50;;;0.90;;
68577;SDS011;61668;45.388;11.784;2022-08-21T05:16:02;5.80;;;1.00;;
68577;SDS011;61668;45.388;11.784;2022-08-21T05:18:28;6.10;;;0.70;;
68577;SDS011;61668;45.388;11.784;2022-08-21T05:20:53;5.90;;;0.70;;
68577;SDS011;61668;45.388;11.784;2022-08-21T05:23:19;5.00;;;0.60;;
68577;SDS011;61668;45.388;11.784;2022-08-21T05:25:44;5.60;;;0.60;;
68577;SDS011;61668;45.388;11.784;2022-08-21T05:28:10;5.80;;;0.70;;
68577;SDS011;61668;45.388;11.784;2022-08-21T05:30:37;5.80;;;0.80;;
68577;SDS011;61668;45.388;11.784;2022-08-21T05:33:04;5.90;;;1.00;;
68577;SDS011;61668;45.388;11.784;2022-08-21T05:35:31;5.50;;;0.80;;
68577;SDS011;61668;45.388;11.784;2022-08-21T05:37:58;4.80;;;0.60;;
68577;SDS011;61668;45.388;11.784;2022-08-21T05:40:25;4.60;;;0.90;;
68577;SDS011;61668;45.388;11.784;2022-08-21T05:42:52;4.70;;;0.60;;
68577;SDS011;61668;45.388;11.784;2022-08-21T05:45:18;5.30;;;0.70;;
68577;SDS011;61668;45.388;11.784;2022-08-21T05:47:44;5.20;;;0.60;;
68577;SDS011;61668;45.388;11.784;2022-08-21T05:50:10;6.90;;;0.70;;
68577;SDS011;61668;45.388;11.784;2022-08-21T05:52:36;6.20;;;0.60;;
68577;SDS011;61668;45.388;11.784;2022-08-21T05:55:01;5.20;;;0.90;;
68577;SDS011;61668;45.388;11.784;2022-08-21T05:57:27;6.00;;;0.80;;
68577;SDS011;61668;45.388;11.784;2022-08-21T05:59:53;5.90;;;0.70;;
68577;SDS011;61668;45.388;11.784;2022-08-21T06:02:20;5.60;;;1.10;;
68577;SDS011;61668;45.388;11.784;2022-08-21T06:04:46;5.50;;;0.80;;
68577;SDS011;61668;45.388;11.784;2022-08-21T06:07:13;4.90;;;0.80;;
68577;SDS011;61668;45.388;11.784;2022-08-21T06:09:39;5.30;;;0.70;;
68577;SDS011;61668;45.388;11.784;2022-08-21T06:12:07;6.20;;;1.20;;
68577;SDS011;61668;45.388;11.784;2022-08-21T06:14:34;6.00;;;0.90;;
68577;SDS011;61668;45.388;11.784;2022-08-21T06:17:05;5.30;;;1.10;;
68577;SDS011;61668;45.388;11.784;2022-08-21T06:19:33;5.80;;;1.00;;
68577;SDS011;61668;45.388;11.784;2022-08-21T06:21:59;5.30;;;0.90;;
68577;SDS011;61668;45.388;11.784;2022-08-21T06:24:25;5.40;;;0.90;;
68577;SDS011;61668;45.388;11.784;2022-08-21T06:26:51;5.90;;;1.00;;
68577;SDS011;61668;45.388;11.784;2022-08-21T06:29:16;7.10;;;1.40;;
68577;SDS011;61668;45.388;11.784;2022-08-21T06:31:43;5.90;;;1.20;;
68577;SDS011;61668;45.388;11.784;2022-08-21T06:34:10;6.80;;;1.20;;
68577;SDS011;61668;45.388;11.784;2022-08-21T06:36:36;6.20;;;1.00;;
68577;SDS011;61668;45.388;11.784;2022-08-21T06:39:02;7.30;;;1.20;;
68577;SDS011;61668;45.388;11.784;2022-08-21T06:41:28;6.90;;;1.10;;
68577;SDS011;61668;45.388;11.784;2022-08-21T06:43:54;5.70;;;1.10;;
68577;SDS011;61668;45.388;11.784;2022-08-21T06:46:21;6.30;;;1.50;;
68577;SDS011;61668;45.388;11.784;2022-08-21T06:48:48;6.90;;;1.00;;
68577;SDS011;61668;45.388;11.784;2022-08-21T06:51:14;6.60;;;0.90;;
68577;SDS011;61668;45.388;11.784;2022-08-21T06:53:40;7.10;;;1.10;;
68577;SDS011;61668;45.388;11.784;2022-08-21T06:56:06;5.30;;;0.70;;
68577;SDS011;61668;45.388;11.784;2022-08-21T06:58:31;6.20;;;0.80;;
68577;SDS011;61668;45.388;11.784;2022-08-21T07:00:57;7.50;;;1.30;;
68577;SDS011;61668;45.388;11.784;2022-08-21T07:03:32;6.40;;;0.70;;
68577;SDS011;61668;45.388;11.784;2022-08-21T07:05:59;5.50;;;0.70;;
68577;SDS011;61668;45.388;11.784;2022-08-21T07:08:26;5.60;;;0.70;;
68577;SDS011;61668;45.388;11.784;2022-08-21T07:10:55;6.80;;;1.30;;
68577;SDS011;61668;45.388;11.784;2022-08-21T07:13:22;8.20;;;2.00;;
68577;SDS011;61668;45.388;11.784;2022-08-21T07:15:48;7.70;;;2.30;;
68577;SDS011;61668;45.388;11.784;2022-08-21T07:18:14;5.80;;;0.90;;
68577;SDS011;61668;45.388;11.784;2022-08-21T07:20:40;6.40;;;1.00;;
68577;SDS011;61668;45.388;11.784;2022-08-21T07:23:09;6.10;;;0.90;;
68577;SDS011;61668;45.388;11.784;2022-08-21T07:25:38;5.80;;;0.90;;
68577;SDS011;61668;45.388;11.784;2022-08-21T07:28:04;6.20;;;0.90;;
68577;SDS011;61668;45.388;11.784;2022-08-21T07:30:30;5.40;;;0.60;;
68577;SDS011;61668;45.388;11.784;2022-08-21T07:32:56;6.20;;;1.10;;
68577;SDS011;61668;45.388;11.784;2022-08-21T07:35:22;5.10;;;1.00;;
68577;SDS011;61668;45.388;11.784;2022-08-21T07:37:48;5.60;;;0.90;;
68577;SDS011;61668;45.388;11.784;2022-08-21T07:40:15;6.60;;;0.70;;
68577;SDS011;61668;45.388;11.784;2022-08-21T07:42:45;6.00;;;1.00;;
68577;SDS011;61668;45.388;11.784;2022-08-21T07:45:15;5.80;;;1.10;;
68577;SDS011;61668;45.388;11.784;2022-08-21T07:47:40;5.80;;;0.80;;
68577;SDS011;61668;45.388;11.784;2022-08-21T07:50:06;5.80;;;0.80;;
68577;SDS011;61668;45.388;11.784;2022-08-21T07:52:33;5.70;;;0.90;;
68577;SDS011;61668;45.388;11.784;2022-08-21T07:54:59;5.20;;;0.60;;
68577;SDS011;61668;45.388;11.784;2022-08-21T07:57:25;5.40;;;0.80;;
68577;SDS011;61668;45.388;11.784;2022-08-21T07:59:51;6.40;;;1.40;;
68577;SDS011;61668;45.388;11.784;2022-08-21T08:02:28;5.70;;;0.70;;
68577;SDS011;61668;45.388;11.784;2022-08-21T08:04:58;6.20;;;0.80;;
68577;SDS011;61668;45.388;11.784;2022-08-21T08:07:26;6.20;;;0.90;;
68577;SDS011;61668;45.388;11.784;2022-08-21T08:09:51;5.40;;;1.00;;
68577;SDS011;61668;45.388;11.784;2022-08-21T08:12:17;6.10;;;1.20;;
68577;SDS011;61668;45.388;11.784;2022-08-21T08:14:43;6.50;;;1.00;;
68577;SDS011;61668;45.388;11.784;2022-08-21T08:17:09;8.80;;;1.20;;
68577;SDS011;61668;45.388;11.784;2022-08-21T08:19:34;5.20;;;0.60;;
68577;SDS011;61668;45.388;11.784;2022-08-21T08:22:00;6.30;;;1.10;;
68577;SDS011;61668;45.388;11.784;2022-08-21T08:24:25;6.50;;;1.00;;
68577;SDS011;61668;45.388;11.784;2022-08-21T08:26:51;5.70;;;0.90;;
68577;SDS011;61668;45.388;11.784;2022-08-21T08:29:20;6.00;;;0.70;;
68577;SDS011;61668;45.388;11.784;2022-08-21T08:31:47;6.10;;;0.50;;
68577;SDS011;61668;45.388;11.784;2022-08-21T08:34:12;6.80;;;1.00;;
68577;SDS011;61668;45.388;11.784;2022-08-21T08:36:38;5.80;;;1.00;;
68577;SDS011;61668;45.388;11.784;2022-08-21T08:39:04;6.20;;;1.20;;
68577;SDS011;61668;45.388;11.784;2022-08-21T08:41:31;5.60;;;0.80;;
68577;SDS011;61668;45.388;11.784;2022-08-21T08:44:00;6.40;;;0.90;;
68577;SDS011;61668;45.388;11.784;2022-08-21T08:46:36;5.70;;;0.80;;
68577;SDS011;61668;45.388;11.784;2022-08-21T08:49:19;5.50;;;1.10;;
68577;SDS011;61668;45.388;11.784;2022-08-21T08:52:11;5.30;;;0.60;;
68577;SDS011;61668;45.388;11.784;2022-08-21T08:54:51;5.30;;;0.60;;
68577;SDS011;61668;45.388;11.784;2022-08-21T08:57:43;5.80;;;0.80;;
68577;SDS011;61668;45.388;11.784;2022-08-21T09:00:14;8.30;;;1.20;;
68577;SDS011;61668;45.388;11.784;2022-08-21T09:02:43;5.90;;;0.60;;
68577;SDS011;61668;45.388;11.784;2022-08-21T09:05:21;5.80;;;1.30;;
68577;SDS011;61668;45.388;11.784;2022-08-21T09:08:15;9.50;;;1.40;;
68577;SDS011;61668;45.388;11.784;2022-08-21T09:11:21;6.30;;;1.10;;
68577;SDS011;61668;45.388;11.784;2022-08-21T09:14:19;6.90;;;0.90;;
68577;SDS011;61668;45.388;11.784;2022-08-21T09:17:08;7.00;;;2.30;;
68577;SDS011;61668;45.388;11.784;2022-08-21T09:25:33;4.50;;;0.80;;
68577;SDS011;61668;45.388;11.784;2022-08-21T09:28:07;5.00;;;0.70;;
68577;SDS011;61668;45.388;11.784;2022-08-21T09:30:36;4.50;;;0.50;;
68577;SDS011;61668;45.388;11.784;2022-08-21T09:33:06;5.40;;;0.60;;
68577;SDS011;61668;45.388;11.784;2022-08-21T09:35:32;5.00;;;0.50;;
68577;SDS011;61668;45.388;11.784;2022-08-21T09:38:06;4.60;;;0.70;;
68577;SDS011;61668;45.388;11.784;2022-08-21T09:40:45;4.70;;;0.50;;
68577;SDS011;61668;45.388;11.784;2022-08-21T09:45:39;4.30;;;0.70;;
68577;SDS011;61668;45.388;11.784;2022-08-21T09:48:23;5.90;;;0.80;;
68577;SDS011;61668;45.388;11.784;2022-08-21T09:50:51;4.70;;;0.60;;
68577;SDS011;61668;45.388;11.784;2022-08-21T09:55:53;5.40;;;0.90;;
68577;SDS011;61668;45.388;11.784;2022-08-21T09:58:41;5.70;;;0.60;;
68577;SDS011;61668;45.388;11.784;2022-08-21T10:01:14;4.40;;;0.70;;
68577;SDS011;61668;45.388;11.784;2022-08-21T10:03:42;4.70;;;1.00;;
68577;SDS011;61668;45.388;11.784;2022-08-21T10:06:09;5.20;;;1.00;;
68577;SDS011;61668;45.388;11.784;2022-08-21T10:08:40;5.80;;;1.00;;
68577;SDS011;61668;45.388;11.784;2022-08-21T10:11:09;5.60;;;1.00;;
68577;SDS011;61668;45.388;11.784;2022-08-21T10:13:55;5.60;;;0.80;;
68577;SDS011;61668;45.388;11.784;2022-08-21T10:17:00;6.20;;;0.90;;
68577;SDS011;61668;45.388;11.784;2022-08-21T10:22:32;5.20;;;0.70;;
68577;SDS011;61668;45.388;11.784;2022-08-21T10:25:20;5.30;;;1.20;;
68577;SDS011;61668;45.388;11.784;2022-08-21T10:28:06;5.30;;;0.70;;
68577;SDS011;61668;45.388;11.784;2022-08-21T10:36:21;5.10;;;0.70;;
68577;SDS011;61668;45.388;11.784;2022-08-21T10:39:33;4.90;;;0.70;;
68577;SDS011;61668;45.388;11.784;2022-08-21T10:42:10;4.40;;;0.70;;
68577;SDS011;61668;45.388;11.784;2022-08-21T10:45:10;5.40;;;0.60;;
68577;SDS011;61668;45.388;11.784;2022-08-21T10:47:47;4.20;;;0.50;;
68577;SDS011;61668;45.388;11.784;2022-08-21T10:50:30;4.20;;;0.70;;
68577;SDS011;61668;45.388;11.784;2022-08-21T10:53:08;4.50;;;0.60;;
68577;SDS011;61668;45.388;11.784;2022-08-21T10:56:12;5.70;;;0.70;;
68577;SDS011;61668;45.388;11.784;2022-08-21T10:59:23;6.70;;;1.40;;
68577;SDS011;61668;45.388;11.784;2022-08-21T11:02:29;4.90;;;0.60;;
68577;SDS011;61668;45.388;11.784;2022-08-21T11:05:19;5.00;;;0.80;;
68577;SDS011;61668;45.388;11.784;2022-08-21T11:07:59;4.10;;;0.30;;
68577;SDS011;61668;45.388;11.784;2022-08-21T11:10:39;5.30;;;0.60;;
68577;SDS011;61668;45.388;11.784;2022-08-21T11:13:27;4.90;;;0.60;;
68577;SDS011;61668;45.388;11.784;2022-08-21T11:19:04;4.70;;;0.40;;
68577;SDS011;61668;45.388;11.784;2022-08-21T11:21:38;3.90;;;0.60;;
68577;SDS011;61668;45.388;11.784;2022-08-21T11:27:45;3.60;;;0.60;;
68577;SDS011;61668;45.388;11.784;2022-08-21T11:30:14;4.90;;;1.20;;
68577;SDS011;61668;45.388;11.784;2022-08-21T11:32:47;4.40;;;0.60;;
68577;SDS011;61668;45.388;11.784;2022-08-21T11:35:43;5.00;;;0.60;;
68577;SDS011;61668;45.388;11.784;2022-08-21T11:44:01;3.80;;;0.60;;
68577;SDS011;61668;45.388;11.784;2022-08-21T11:54:58;5.80;;;1.00;;
68577;SDS011;61668;45.388;11.784;2022-08-21T12:00:39;4.70;;;0.70;;
68577;SDS011;61668;45.388;11.784;2022-08-21T12:03:24;4.70;;;0.80;;
68577;SDS011;61668;45.388;11.784;2022-08-21T12:05:59;4.10;;;0.60;;
68577;SDS011;61668;45.388;11.784;2022-08-21T12:14:13;4.60;;;0.70;;
68577;SDS011;61668;45.388;11.784;2022-08-21T12:16:43;4.00;;;0.40;;
68577;SDS011;61668;45.388;11.784;2022-08-21T12:26:57;3.60;;;0.70;;
68577;SDS011;61668;45.388;11.784;2022-08-21T12:29:32;3.50;;;0.50;;
68577;SDS011;61668;45.388;11.784;2022-08-21T12:32:03;3.60;;;0.60;;
68577;SDS011;61668;45.388;11.784;2022-08-21T12:35:01;3.30;;;0.40;;
68577;SDS011;61668;45.388;11.784;2022-08-21T12:40:18;3.70;;;0.80;;
68577;SDS011;61668;45.388;11.784;2022-08-21T12:42:56;4.10;;;0.50;;
68577;SDS011;61668;45.388;11.784;2022-08-21T12:48:07;4.10;;;0.40;;
68577;SDS011;61668;45.388;11.784;2022-08-21T12:51:26;4.20;;;0.50;;
68577;SDS011;61668;45.388;11.784;2022-08-21T12:53:44;4.00;;;0.50;;
68577;SDS011;61668;45.388;11.784;2022-08-21T12:56:17;4.50;;;0.50;;
68577;SDS011;61668;45.388;11.784;2022-08-21T12:58:54;3.30;;;0.60;;
68577;SDS011;61668;45.388;11.784;2022-08-21T13:04:19;4.20;;;0.70;;
68577;SDS011;61668;45.388;11.784;2022-08-21T13:06:51;4.80;;;0.70;;
68577;SDS011;61668;45.388;11.784;2022-08-21T13:09:23;4.50;;;1.10;;
68577;SDS011;61668;45.388;11.784;2022-08-21T13:11:52;3.50;;;0.50;;
68577;SDS011;61668;45.388;11.784;2022-08-21T13:16:54;3.30;;;0.50;;
68577;SDS011;61668;45.388;11.784;2022-08-21T13:19:21;4.60;;;0.90;;
68577;SDS011;61668;45.388;11.784;2022-08-21T13:21:46;5.10;;;0.50;;
68577;SDS011;61668;45.388;11.784;2022-08-21T13:24:37;3.50;;;0.70;;
68577;SDS011;61668;45.388;11.784;2022-08-21T13:27:17;4.00;;;0.80;;
68577;SDS011;61668;45.388;11.784;2022-08-21T13:29:44;4.00;;;0.80;;
68577;SDS011;61668;45.388;11.784;2022-08-21T13:32:19;3.90;;;0.70;;
68577;SDS011;61668;45.388;11.784;2022-08-21T13:34:48;4.50;;;0.80;;
68577;SDS011;61668;45.388;11.784;2022-08-21T13:37:14;4.00;;;1.00;;
68577;SDS011;61668;45.388;11.784;2022-08-21T13:39:39;5.20;;;0.50;;
68577;SDS011;61668;45.388;11.784;2022-08-21T13:42:10;4.30;;;0.50;;
68577;SDS011;61668;45.388;11.784;2022-08-21T13:44:42;4.90;;;0.60;;
68577;SDS011;61668;45.388;11.784;2022-08-21T13:47:11;3.70;;;0.60;;
68577;SDS011;61668;45.388;11.784;2022-08-21T13:49:42;4.20;;;0.60;;
68577;SDS011;61668;45.388;11.784;2022-08-21T13:52:28;3.80;;;0.60;;
68577;SDS011;61668;45.388;11.784;2022-08-21T13:55:08;5.50;;;0.60;;
68577;SDS011;61668;45.388;11.784;2022-08-21T13:57:36;4.20;;;0.90;;
68577;SDS011;61668;45.388;11.784;2022-08-21T14:03:00;4.20;;;0.70;;
68577;SDS011;61668;45.388;11.784;2022-08-21T14:05:34;4.60;;;0.70;;
68577;SDS011;61668;45.388;11.784;2022-08-21T14:08:08;4.50;;;0.60;;
68577;SDS011;61668;45.388;11.784;2022-08-21T14:10:43;3.80;;;0.40;;
68577;SDS011;61668;45.388;11.784;2022-08-21T14:13:38;4.00;;;0.50;;
68577;SDS011;61668;45.388;11.784;2022-08-21T14:16:28;4.00;;;0.50;;
68577;SDS011;61668;45.388;11.784;2022-08-21T14:19:17;4.10;;;0.50;;
68577;SDS011;61668;45.388;11.784;2022-08-21T14:21:47;3.70;;;0.60;;
68577;SDS011;61668;45.388;11.784;2022-08-21T14:26:50;4.10;;;0.70;;
68577;SDS011;61668;45.388;11.784;2022-08-21T14:29:18;3.90;;;0.40;;
68577;SDS011;61668;45.388;11.784;2022-08-21T14:31:53;4.50;;;0.60;;
68577;SDS011;61668;45.388;11.784;2022-08-21T14:34:25;4.80;;;0.60;;
68577;SDS011;61668;45.388;11.784;2022-08-21T14:36:52;3.70;;;0.50;;
68577;SDS011;61668;45.388;11.784;2022-08-21T14:39:19;4.40;;;0.40;;
68577;SDS011;61668;45.388;11.784;2022-08-21T14:41:45;4.60;;;0.70;;
68577;SDS011;61668;45.388;11.784;2022-08-21T14:44:15;4.40;;;0.40;;
68577;SDS011;61668;45.388;11.784;2022-08-21T14:46:41;4.20;;;0.60;;
68577;SDS011;61668;45.388;11.784;2022-08-21T14:49:07;4.00;;;0.60;;
68577;SDS011;61668;45.388;11.784;2022-08-21T14:51:33;3.60;;;0.50;;
68577;SDS011;61668;45.388;11.784;2022-08-21T14:53:59;5.00;;;0.50;;
68577;SDS011;61668;45.388;11.784;2022-08-21T14:56:25;3.80;;;0.40;;
68577;SDS011;61668;45.388;11.784;2022-08-21T14:58:51;5.30;;;0.60;;
68577;SDS011;61668;45.388;11.784;2022-08-21T15:01:20;4.10;;;0.50;;
68577;SDS011;61668;45.388;11.784;2022-08-21T15:03:47;3.80;;;0.50;;
68577;SDS011;61668;45.388;11.784;2022-08-21T15:06:16;4.50;;;0.40;;
68577;SDS011;61668;45.388;11.784;2022-08-21T15:08:42;3.70;;;0.40;;
68577;SDS011;61668;45.388;11.784;2022-08-21T15:11:11;3.80;;;0.50;;
68577;SDS011;61668;45.388;11.784;2022-08-21T15:13:41;4.50;;;0.40;;
68577;SDS011;61668;45.388;11.784;2022-08-21T15:16:09;4.60;;;0.40;;
68577;SDS011;61668;45.388;11.784;2022-08-21T15:18:36;4.90;;;0.80;;
68577;SDS011;61668;45.388;11.784;2022-08-21T15:21:02;4.30;;;0.40;;
68577;SDS011;61668;45.388;11.784;2022-08-21T15:23:28;4.10;;;0.70;;
68577;SDS011;61668;45.388;11.784;2022-08-21T15:25:54;4.00;;;0.70;;
68577;SDS011;61668;45.388;11.784;2022-08-21T15:28:24;4.20;;;0.40;;
68577;SDS011;61668;45.388;11.784;2022-08-21T15:30:50;3.80;;;0.50;;
68577;SDS011;61668;45.388;11.784;2022-08-21T15:33:17;5.30;;;0.70;;
68577;SDS011;61668;45.388;11.784;2022-08-21T15:35:43;4.90;;;0.80;;
68577;SDS011;61668;45.388;11.784;2022-08-21T15:38:11;4.60;;;0.70;;
68577;SDS011;61668;45.388;11.784;2022-08-21T15:40:38;4.50;;;0.50;;
68577;SDS011;61668;45.388;11.784;2022-08-21T15:43:05;4.80;;;0.50;;
68577;SDS011;61668;45.388;11.784;2022-08-21T15:45:33;5.70;;;0.70;;
68577;SDS011;61668;45.388;11.784;2022-08-21T15:47:59;5.80;;;0.90;;
68577;SDS011;61668;45.388;11.784;2022-08-21T15:50:25;7.20;;;0.70;;
68577;SDS011;61668;45.388;11.784;2022-08-21T15:52:51;5.30;;;0.80;;
68577;SDS011;61668;45.388;11.784;2022-08-21T15:55:17;4.90;;;0.50;;
68577;SDS011;61668;45.388;11.784;2022-08-21T15:57:46;5.30;;;0.90;;
68577;SDS011;61668;45.388;11.784;2022-08-21T16:00:20;5.00;;;0.60;;
68577;SDS011;61668;45.388;11.784;2022-08-21T16:02:51;4.90;;;0.60;;
68577;SDS011;61668;45.388;11.784;2022-08-21T16:05:19;6.40;;;0.70;;
68577;SDS011;61668;45.388;11.784;2022-08-21T16:07:47;5.10;;;0.80;;